createdAt,value
2022-09-16T00:01:39.066Z,99409.37
2022-09-16T00:04:11.014Z,99409.80
2022-09-16T00:06:43.381Z,99405.66
2022-09-16T00:09:15.370Z,99410.59
2022-09-16T00:11:47.302Z,99409.45
2022-09-16T00:14:19.227Z,99414.89
2022-09-16T00:16:51.297Z,99420.80
2022-09-16T00:19:23.214Z,99420.86
2022-09-16T00:21:55.357Z,99424.48
2022-09-16T00:24:28.410Z,99428.16
2022-09-16T00:27:00.427Z,99431.89
2022-09-16T00:29:33.327Z,99433.91
2022-09-16T00:32:06.280Z,99433.23
2022-09-16T00:34:38.291Z,99430.73
2022-09-16T00:37:10.481Z,99436.05
2022-09-16T00:39:42.477Z,99439.13
2022-09-16T00:42:18.786Z,99435.70
2022-09-16T00:45:03.053Z,99429.07
2022-09-16T00:47:38.299Z,99422.07
2022-09-16T00:50:15.840Z,99430.98
2022-09-16T00:52:48.917Z,99421.00
2022-09-16T00:55:25.183Z,99432.79
2022-09-16T00:58:03.102Z,99434.58
2022-09-16T01:00:35.301Z,99435.22
2022-09-16T01:03:08.540Z,99434.70
2022-09-16T01:05:41.474Z,99439.07
2022-09-16T01:08:14.060Z,99434.83
2022-09-16T01:10:46.091Z,99433.74
2022-09-16T01:13:18.587Z,99430.52
2022-09-16T01:15:56.856Z,99440.77
2022-09-16T01:18:39.829Z,99434.65
2022-09-16T01:21:22.711Z,99436.20
2022-09-16T01:24:07.963Z,99438.81
2022-09-16T01:26:58.309Z,99438.92
2022-09-16T01:29:57.103Z,99434.90
2022-09-16T01:32:34.322Z,99432.57
2022-09-16T01:35:16.982Z,99432.67
2022-09-16T01:37:58.181Z,99430.79
2022-09-16T01:40:34.519Z,99430.48
2022-09-16T01:43:15.042Z,99434.27
2022-09-16T01:45:54.639Z,99433.08
2022-09-16T01:48:34.525Z,99436.06
2022-09-16T01:51:15.586Z,99433.87
2022-09-16T01:53:55.692Z,99433.95
2022-09-16T01:56:34.283Z,99436.81
2022-09-16T01:59:10.574Z,99440.40
2022-09-16T02:01:47.980Z,99438.52
2022-09-16T02:04:24.427Z,99439.02
2022-09-16T02:06:58.272Z,99437.63
2022-09-16T02:09:35.167Z,99441.63
2022-09-16T02:12:11.516Z,99441.16
2022-09-16T02:14:46.660Z,99433.93
2022-09-16T02:17:22.285Z,99439.10
2022-09-16T02:20:01.446Z,99435.67
2022-09-16T02:22:38.080Z,99421.84
2022-09-16T02:25:12.816Z,99434.98
2022-09-16T02:27:44.790Z,99436.00
2022-09-16T02:30:19.935Z,99433.51
2022-09-16T02:32:56.496Z,99431.98
2022-09-16T02:35:31.518Z,99433.66
2022-09-16T02:38:08.319Z,99436.59
2022-09-16T02:40:48.103Z,99435.51
2022-09-16T02:43:21.497Z,99440.02
2022-09-16T02:46:01.096Z,99438.08
2022-09-16T02:48:39.419Z,99439.87
2022-09-16T02:51:19.575Z,99443.59
2022-09-16T02:53:59.417Z,99444.94
2022-09-16T02:56:35.986Z,99446.86
2022-09-16T02:59:11.615Z,99443.64
2022-09-16T03:01:45.599Z,99450.16
2022-09-16T03:04:20.591Z,99450.80
2022-09-16T03:06:52.930Z,99455.10
2022-09-16T03:09:29.946Z,99449.61
2022-09-16T03:12:20.708Z,99452.48
2022-09-16T03:15:10.953Z,99455.13
2022-09-16T03:18:16.915Z,99454.94
2022-09-16T03:21:00.109Z,99454.16
2022-09-16T03:23:44.817Z,99450.52
2022-09-16T03:26:22.387Z,99451.48
2022-09-16T03:29:05.051Z,99456.80
2022-09-16T03:31:45.973Z,99456.41
2022-09-16T03:34:24.606Z,99458.96
2022-09-16T03:37:02.839Z,99451.02
2022-09-16T03:39:35.953Z,99449.28
2022-09-16T03:42:11.497Z,99444.95
2022-09-16T03:44:43.698Z,99439.16
2022-09-16T03:47:16.475Z,99442.15
2022-09-16T03:49:48.937Z,99439.59
2022-09-16T03:52:21.370Z,99440.77
2022-09-16T03:54:53.289Z,99442.55
2022-09-16T03:57:27.622Z,99441.33
2022-09-16T03:59:59.735Z,99445.34
2022-09-16T04:02:32.089Z,99444.73
2022-09-16T04:05:04.433Z,99447.81
2022-09-16T04:07:37.101Z,99444.98
2022-09-16T04:10:12.535Z,99448.91
2022-09-16T04:12:45.099Z,99452.77
2022-09-16T04:15:17.206Z,99455.70
2022-09-16T04:17:49.688Z,99456.98
2022-09-16T04:20:21.894Z,99456.06
2022-09-16T04:22:53.920Z,99439.75
2022-09-16T04:25:25.869Z,99454.09
2022-09-16T04:27:57.869Z,99449.06
2022-09-16T04:30:30.448Z,99449.55
2022-09-16T04:33:02.447Z,99451.02
2022-09-16T04:35:34.667Z,99451.39
2022-09-16T04:38:06.774Z,99453.48
2022-09-16T04:40:40.274Z,99451.66
2022-09-16T04:43:12.283Z,99453.26
2022-09-16T04:45:44.247Z,99449.21
2022-09-16T04:48:18.208Z,99450.88
2022-09-16T04:50:50.763Z,99451.13
2022-09-16T04:53:23.138Z,99455.45
2022-09-16T04:55:55.067Z,99458.62
2022-09-16T04:58:27.212Z,99456.92
2022-09-16T05:01:04.317Z,99458.35
2022-09-16T05:03:36.616Z,99462.11
2022-09-16T05:06:11.348Z,99465.43
2022-09-16T05:08:44.020Z,99469.45
2022-09-16T05:11:18.093Z,99472.63
2022-09-16T05:13:50.352Z,99472.52
2022-09-16T05:16:24.530Z,99473.96
2022-09-16T05:18:58.266Z,99476.75
2022-09-16T05:21:33.118Z,99473.46
2022-09-16T05:24:04.411Z,99472.40
2022-09-16T05:26:38.151Z,99470.91
2022-09-16T05:29:12.700Z,99466.98
2022-09-16T05:31:47.689Z,99470.29
2022-09-16T05:34:23.314Z,99474.41
2022-09-16T05:36:55.820Z,99474.29
2022-09-16T05:39:28.962Z,99476.20
2022-09-16T05:42:03.388Z,99480.52
2022-09-16T05:44:35.389Z,99475.61
2022-09-16T05:47:07.698Z,99475.10
2022-09-16T05:49:39.619Z,99446.41
2022-09-16T05:52:11.683Z,99468.67
2022-09-16T05:54:43.671Z,99471.45
2022-09-16T05:57:15.733Z,99469.43
2022-09-16T05:59:47.943Z,99471.83
2022-09-16T06:02:20.477Z,99480.59
2022-09-16T06:04:53.369Z,99478.73
2022-09-16T06:07:25.261Z,99474.27
2022-09-16T06:09:57.461Z,99478.46
2022-09-16T06:12:29.942Z,99474.66
2022-09-16T06:15:02.316Z,99473.75
2022-09-16T06:17:34.312Z,99467.06
2022-09-16T06:20:07.781Z,99464.36
2022-09-16T06:22:40.108Z,99464.68
2022-09-16T06:25:12.521Z,99465.41
2022-09-16T06:27:44.578Z,99453.29
2022-09-16T06:30:16.917Z,99454.77
2022-09-16T06:32:48.881Z,99452.85
2022-09-16T06:35:20.885Z,99452.02
2022-09-16T06:37:52.869Z,99449.57
2022-09-16T06:40:25.089Z,99454.16
2022-09-16T06:43:00.183Z,99450.38
2022-09-16T06:45:32.421Z,99450.29
2022-09-16T06:48:04.899Z,99454.53
2022-09-16T06:50:36.945Z,99456.97
2022-09-16T06:53:09.207Z,99455.41
2022-09-16T06:55:41.359Z,99454.21
2022-09-16T06:58:13.584Z,99456.22
2022-09-16T07:00:46.004Z,99459.04
2022-09-16T07:03:18.244Z,99458.70
2022-09-16T07:06:00.467Z,99447.34
2022-09-16T07:08:33.777Z,99461.38
2022-09-16T07:11:08.336Z,99448.81
2022-09-16T07:13:41.268Z,99463.23
2022-09-16T07:16:15.737Z,99468.75
2022-09-16T07:18:48.551Z,99468.43
2022-09-16T07:21:22.883Z,99467.29
2022-09-16T07:23:58.234Z,99470.48
2022-09-16T07:26:32.045Z,99470.02
2022-09-16T07:29:07.917Z,99471.27
2022-09-16T07:31:41.049Z,99473.33
2022-09-16T07:34:13.914Z,99476.06
2022-09-16T07:36:49.475Z,99461.77
2022-09-16T07:39:22.441Z,99476.52
2022-09-16T07:41:54.776Z,99478.36
2022-09-16T07:44:28.642Z,99475.41
2022-09-16T07:47:00.732Z,99482.52
2022-09-16T07:49:33.013Z,99484.77
2022-09-16T07:52:05.249Z,99484.46
2022-09-16T07:54:37.501Z,99486.04
2022-09-16T07:57:09.609Z,99484.52
2022-09-16T07:59:41.610Z,99485.38
2022-09-16T08:02:13.947Z,99486.69
2022-09-16T08:04:46.543Z,99489.25
2022-09-16T08:07:18.551Z,99483.91
2022-09-16T08:09:53.035Z,99485.71
2022-09-16T08:12:26.177Z,99488.23
2022-09-16T08:14:58.332Z,99484.98
2022-09-16T08:17:33.366Z,99484.20
2022-09-16T08:20:07.310Z,99479.04
2022-09-16T08:22:39.441Z,99473.99
2022-09-16T08:25:11.917Z,99484.55
2022-09-16T08:27:43.967Z,99481.48
2022-09-16T08:30:15.999Z,99483.20
2022-09-16T08:32:48.724Z,99469.15
2022-09-16T08:35:20.709Z,99487.48
2022-09-16T08:37:52.913Z,99477.16
2022-09-16T08:40:26.895Z,99473.13
2022-09-16T08:43:05.734Z,99482.13
2022-09-16T08:45:45.297Z,99477.45
2022-09-16T08:48:30.583Z,99475.63
2022-09-16T08:51:03.989Z,99479.63
2022-09-16T08:53:41.254Z,99485.66
2022-09-16T08:56:19.751Z,99480.63
2022-09-16T08:58:55.569Z,99482.53
2022-09-16T09:01:35.694Z,99483.63
2022-09-16T09:04:08.192Z,99475.80
2022-09-16T09:06:59.838Z,99475.23
2022-09-16T09:09:44.704Z,99476.02
2022-09-16T09:12:23.370Z,99475.67
2022-09-16T09:15:07.904Z,99474.02
2022-09-16T09:17:51.335Z,99474.80
2022-09-16T09:20:35.172Z,99468.71
2022-09-16T09:23:25.597Z,99468.39
2022-09-16T09:26:05.469Z,99469.90
2022-09-16T09:29:12.835Z,99468.48
2022-09-16T09:31:54.338Z,99466.23
2022-09-16T09:34:47.945Z,99471.27
2022-09-16T09:37:35.703Z,99466.16
2022-09-16T09:40:16.759Z,99461.21
2022-09-16T09:42:54.473Z,99455.91
2022-09-16T09:45:31.035Z,99461.52
2022-09-16T09:48:12.094Z,99464.48
2022-09-16T09:50:46.290Z,99465.73
2022-09-16T09:53:26.129Z,99456.73
2022-09-16T09:56:08.251Z,99458.08
2022-09-16T09:58:45.331Z,99456.66
2022-09-16T10:01:19.950Z,99464.85
2022-09-16T10:03:56.263Z,99467.94
2022-09-16T10:06:34.385Z,99458.30
2022-09-16T10:09:06.807Z,99451.99
2022-09-16T10:11:49.129Z,99453.42
2022-09-16T10:14:32.639Z,99447.66
2022-09-16T10:17:06.937Z,99446.30
2022-09-16T10:19:51.452Z,99454.20
2022-09-16T10:22:28.200Z,99453.27
2022-09-16T10:25:02.015Z,99454.65
2022-09-16T10:27:36.781Z,99453.42
2022-09-16T10:30:19.114Z,99457.52
2022-09-16T10:32:56.647Z,99454.08
2022-09-16T10:35:30.724Z,99442.08
2022-09-16T10:38:07.134Z,99458.13
2022-09-16T10:40:39.495Z,99470.08
2022-09-16T10:43:17.559Z,99467.30
2022-09-16T10:45:52.814Z,99452.86
2022-09-16T10:48:30.976Z,99452.95
2022-09-16T10:51:05.014Z,99455.67
2022-09-16T10:53:40.884Z,99457.02
2022-09-16T10:56:22.139Z,99457.63
2022-09-16T10:59:07.161Z,99453.55
2022-09-16T11:01:51.391Z,99464.20
2022-09-16T11:05:01.787Z,99470.27
2022-09-16T11:07:45.004Z,99460.20
2022-09-16T11:10:25.355Z,99457.36
2022-09-16T11:13:24.729Z,99454.14
2022-09-16T11:16:13.113Z,99452.25
2022-09-16T11:18:55.337Z,99433.50
2022-09-16T11:21:44.889Z,99454.20
2022-09-16T11:24:52.191Z,99451.96
2022-09-16T11:27:39.160Z,99449.52
2022-09-16T11:30:17.171Z,99445.95
2022-09-16T11:33:22.446Z,99441.07
2022-09-16T11:36:24.214Z,99441.05
2022-09-16T11:39:05.830Z,99444.86
2022-09-16T11:41:42.700Z,99447.20
2022-09-16T11:44:31.391Z,99454.73
2022-09-16T11:47:18.101Z,99453.06
2022-09-16T11:50:05.041Z,99437.90
2022-09-16T11:52:51.918Z,99441.55
2022-09-16T11:55:37.391Z,99440.30
2022-09-16T11:58:21.495Z,99433.80
2022-09-16T12:00:57.260Z,99438.91
2022-09-16T12:03:37.394Z,99446.33
2022-09-16T12:06:15.703Z,99425.64
2022-09-16T12:09:02.624Z,99440.39
2022-09-16T12:11:40.794Z,99442.04
2022-09-16T12:14:19.540Z,99452.65
2022-09-16T12:16:57.240Z,99456.78
2022-09-16T12:19:35.036Z,99450.59
2022-09-16T12:22:11.350Z,99442.36
2022-09-16T12:24:48.428Z,99433.95
2022-09-16T12:27:34.881Z,99427.79
2022-09-16T12:30:15.116Z,99419.77
2022-09-16T12:32:58.246Z,99413.56
2022-09-16T12:35:35.608Z,99408.80
2022-09-16T12:38:13.554Z,99404.30
2022-09-16T12:41:04.231Z,99397.81
2022-09-16T12:43:52.405Z,99400.71
2022-09-16T12:47:04.830Z,99394.52
2022-09-16T12:49:58.356Z,99343.84
2022-09-16T12:52:42.257Z,99380.30
2022-09-16T12:55:52.743Z,99380.29
2022-09-16T12:58:48.972Z,99373.44
2022-09-16T13:01:26.187Z,99375.89
2022-09-16T13:04:03.304Z,99375.85
2022-09-16T13:06:38.737Z,99375.62
2022-09-16T13:09:22.616Z,99375.08
2022-09-16T13:14:55.323Z,99366.58
2022-09-16T13:17:35.287Z,99360.63
2022-09-16T13:20:18.338Z,99368.05
2022-09-16T13:23:00.499Z,99370.35
2022-09-16T13:25:36.124Z,99365.76
2022-09-16T13:28:26.586Z,99363.79
2022-09-16T13:31:10.062Z,99363.95
2022-09-16T13:33:44.484Z,99365.36
2022-09-16T13:36:31.095Z,99365.92
2022-09-16T13:39:05.247Z,99364.97
2022-09-16T13:41:41.500Z,99371.46
2022-09-16T13:44:41.765Z,99377.01
2022-09-16T13:47:31.871Z,99377.13
2022-09-16T13:50:13.620Z,99383.42
2022-09-16T13:52:46.486Z,99394.19
2022-09-16T13:55:25.246Z,99388.55
2022-09-16T13:58:04.166Z,99388.05
2022-09-16T14:00:45.788Z,99386.09
2022-09-16T14:03:38.303Z,99376.14
2022-09-16T14:06:42.261Z,99386.16
2022-09-16T14:09:29.544Z,99374.07
2022-09-16T14:12:10.794Z,99384.02
2022-09-16T14:14:47.263Z,99386.65
2022-09-16T14:17:24.495Z,99382.83
2022-09-16T14:20:03.407Z,99385.23
2022-09-16T14:22:36.739Z,99388.02
2022-09-16T14:25:32.598Z,99388.71
2022-09-16T14:28:18.940Z,99383.55
2022-09-16T14:30:56.256Z,99378.55
2022-09-16T14:33:33.830Z,99371.55
2022-09-16T14:36:13.878Z,99365.89
2022-09-16T14:38:49.297Z,99359.75
2022-09-16T14:41:28.249Z,99366.36
2022-09-16T14:44:08.338Z,99361.18
2022-09-16T14:46:45.438Z,99357.93
2022-09-16T14:49:18.591Z,99361.09
2022-09-16T14:51:53.358Z,99363.65
2022-09-16T14:54:24.453Z,99359.66
2022-09-16T14:57:05.305Z,99360.11
2022-09-16T14:59:40.036Z,99322.39
2022-09-16T15:02:21.803Z,99362.70
2022-09-16T15:04:57.931Z,99358.30
2022-09-16T15:07:34.333Z,99357.39
2022-09-16T15:10:15.660Z,99353.42
2022-09-16T15:12:53.068Z,99351.73
2022-09-16T15:15:28.085Z,99348.92
2022-09-16T15:18:03.312Z,99354.48
2022-09-16T15:20:40.120Z,99352.12
2022-09-16T15:23:24.120Z,99354.58
2022-09-16T15:25:59.976Z,99351.52
2022-09-16T15:28:32.456Z,99350.02
2022-09-16T15:31:05.815Z,99351.30
2022-09-16T15:33:42.813Z,99345.27
2022-09-16T15:36:35.770Z,99341.20
2022-09-16T15:39:23.527Z,99339.20
2022-09-16T15:42:12.249Z,99336.00
2022-09-16T15:44:51.193Z,99330.42
2022-09-16T15:47:25.859Z,99326.07
2022-09-16T15:49:59.609Z,99323.15
2022-09-16T15:52:36.163Z,99323.68
2022-09-16T15:55:09.584Z,99326.46
2022-09-16T15:57:44.839Z,99325.34
2022-09-16T16:00:17.579Z,99324.95
2022-09-16T16:02:55.941Z,99328.98
2022-09-16T16:05:30.676Z,99325.95
2022-09-16T16:08:06.172Z,99326.33
2022-09-16T16:10:42.130Z,99319.63
2022-09-16T16:13:14.673Z,99316.13
2022-09-16T16:15:46.979Z,99318.66
2022-09-16T16:18:19.933Z,99317.70
2022-09-16T16:20:51.992Z,99320.96
2022-09-16T16:23:24.050Z,99318.96
2022-09-16T16:25:56.384Z,99315.02
2022-09-16T16:28:28.382Z,99315.86
2022-09-16T16:31:13.507Z,99319.45
2022-09-16T16:33:48.386Z,99317.84
2022-09-16T16:36:22.335Z,99314.84
2022-09-16T16:38:54.582Z,99310.14
2022-09-16T16:41:27.101Z,99302.90
2022-09-16T16:43:59.122Z,99309.42
2022-09-16T16:46:31.968Z,99313.62
2022-09-16T16:49:04.965Z,99313.85
2022-09-16T16:51:36.999Z,99317.98
2022-09-16T16:54:09.239Z,99315.35
2022-09-16T16:56:41.703Z,99318.99
2022-09-16T16:59:14.015Z,99323.60
2022-09-16T17:01:48.960Z,99320.99
2022-09-16T17:04:21.667Z,99327.55
2022-09-16T17:07:14.470Z,99326.98
2022-09-16T17:09:46.466Z,99327.86
2022-09-16T17:12:18.811Z,99334.82
2022-09-16T17:14:51.305Z,99333.52
2022-09-16T17:17:26.504Z,99333.80
2022-09-16T17:20:01.543Z,99335.54
2022-09-16T17:22:34.025Z,99323.06
2022-09-16T17:25:06.645Z,99337.08
2022-09-16T17:27:38.974Z,99335.21
2022-09-16T17:30:13.247Z,99332.63
2022-09-16T17:32:46.666Z,99337.86
2022-09-16T17:35:19.557Z,99336.60
2022-09-16T17:37:51.926Z,99340.48
2022-09-16T17:40:24.362Z,99341.02
2022-09-16T17:42:56.503Z,99337.39
2022-09-16T17:45:28.713Z,99341.30
2022-09-16T17:48:01.185Z,99340.22
2022-09-16T17:50:33.948Z,99338.20
2022-09-16T17:53:06.147Z,99338.11
2022-09-16T17:55:38.227Z,99337.46
2022-09-16T17:58:10.302Z,99338.43
2022-09-16T18:00:42.744Z,99337.80
2022-09-16T18:03:15.589Z,99343.05
2022-09-16T18:05:49.007Z,99340.41
2022-09-16T18:08:21.307Z,99335.55
2022-09-16T18:10:56.008Z,99336.62
2022-09-16T18:13:28.152Z,99335.89
2022-09-16T18:16:04.726Z,99338.04
2022-09-16T18:18:37.863Z,99321.33
2022-09-16T18:21:14.359Z,99336.52
2022-09-16T18:23:46.766Z,99336.73
2022-09-16T18:26:19.974Z,99340.42
2022-09-16T18:29:11.791Z,99342.13
2022-09-16T18:31:48.180Z,99337.26
2022-09-16T18:34:21.336Z,99333.70
2022-09-16T18:36:54.370Z,99332.61
2022-09-16T18:39:27.207Z,99320.16
2022-09-16T18:41:59.419Z,99334.05
2022-09-16T18:44:32.009Z,99335.59
2022-09-16T18:47:03.992Z,99335.67
2022-09-16T18:49:36.643Z,99333.54
2022-09-16T18:52:08.871Z,99315.73
2022-09-16T18:54:41.599Z,99334.46
2022-09-16T18:57:14.067Z,99332.35
2022-09-16T18:59:47.139Z,99332.70
2022-09-16T19:02:19.331Z,99331.45
2022-09-16T19:04:51.491Z,99335.47
2022-09-16T19:07:28.011Z,99329.90
2022-09-16T19:10:00.712Z,99330.45
2022-09-16T19:12:39.217Z,99329.54
2022-09-16T19:15:13.435Z,99337.67
2022-09-16T19:17:48.489Z,99326.20
2022-09-16T19:20:20.685Z,99335.81
2022-09-16T19:22:52.888Z,99340.94
2022-09-16T19:25:25.748Z,99339.11
2022-09-16T19:27:57.837Z,99338.49
2022-09-16T19:30:30.041Z,99327.97
2022-09-16T19:33:02.130Z,99343.61
2022-09-16T19:35:34.847Z,99341.23
2022-09-16T19:38:07.418Z,99336.70
2022-09-16T19:40:39.688Z,99339.73
2022-09-16T19:43:12.122Z,99337.94
2022-09-16T19:45:44.699Z,99341.91
2022-09-16T19:48:16.931Z,99341.67
2022-09-16T19:50:54.630Z,99322.31
2022-09-16T19:53:29.263Z,99335.24
2022-09-16T19:56:04.054Z,99334.66
2022-09-16T19:58:38.427Z,99330.21
2022-09-16T20:01:13.112Z,99335.39
2022-09-16T20:03:45.934Z,99333.77
2022-09-16T20:06:20.281Z,99332.29
2022-09-16T20:08:58.791Z,99330.86
2022-09-16T20:11:32.847Z,99329.04
2022-09-16T20:14:07.088Z,99326.88
2022-09-16T20:16:40.772Z,99331.52
2022-09-16T20:19:17.601Z,99315.38
2022-09-16T20:21:49.903Z,99324.98
2022-09-16T20:24:23.881Z,99328.52
2022-09-16T20:26:58.264Z,99333.56
2022-09-16T20:29:31.905Z,99320.92
2022-09-16T20:32:04.620Z,99330.94
2022-09-16T20:34:36.838Z,99331.72
2022-09-16T20:37:09.166Z,99335.26
2022-09-16T20:39:41.848Z,99338.30
2022-09-16T20:42:14.595Z,99339.58
2022-09-16T20:44:49.446Z,99336.23
2022-09-16T20:47:21.854Z,99337.48
2022-09-16T20:49:54.155Z,99338.45
2022-09-16T20:52:26.905Z,99334.48
2022-09-16T20:55:05.076Z,99334.59
2022-09-16T20:57:37.463Z,99334.52
2022-09-16T21:00:13.003Z,99310.30
2022-09-16T21:02:45.285Z,99334.41
2022-09-16T21:05:18.690Z,99336.04
2022-09-16T21:07:51.095Z,99335.33
2022-09-16T21:10:24.270Z,99335.39
2022-09-16T21:12:58.164Z,99334.82
2022-09-16T21:15:31.660Z,99331.88
2022-09-16T21:18:03.620Z,99333.02
2022-09-16T21:20:38.088Z,99326.99
2022-09-16T21:27:57.626Z,99334.20
2022-09-16T21:30:30.689Z,99337.04
2022-09-16T21:33:02.702Z,99318.81
2022-09-16T21:35:40.310Z,99333.55
2022-09-16T21:38:18.828Z,99328.86
2022-09-16T21:48:21.222Z,99333.22
2022-09-16T21:50:54.751Z,99334.35
2022-09-16T21:53:28.512Z,99332.29
2022-09-16T21:56:04.893Z,99337.42
2022-09-16T21:58:37.757Z,99339.64
2022-09-16T22:01:12.308Z,99336.74
2022-09-16T22:03:47.482Z,99336.90
2022-09-16T22:06:22.389Z,99332.94
2022-09-16T22:08:56.962Z,99332.59
2022-09-16T22:11:30.994Z,99337.68
2022-09-16T22:14:04.823Z,99333.58
2022-09-16T22:16:38.632Z,99328.65
2022-09-16T22:19:12.344Z,99317.02
2022-09-16T22:21:46.188Z,99330.38
2022-09-16T22:24:20.678Z,99326.06
2022-09-16T22:26:55.380Z,99323.33
2022-09-16T22:29:27.651Z,99328.02
2022-09-16T22:32:00.861Z,99326.19
2022-09-16T22:34:35.566Z,99324.85
2022-09-16T22:37:09.508Z,99324.67
2022-09-16T22:39:42.650Z,99322.41
2022-09-16T22:42:15.179Z,99312.00
2022-09-16T22:44:51.509Z,99320.30
2022-09-16T22:47:28.496Z,99315.58
2022-09-16T22:50:02.092Z,99311.03
2022-09-16T22:52:35.303Z,99299.62
2022-09-16T22:55:10.385Z,99312.20
2022-09-16T22:57:43.629Z,99311.77
2022-09-16T23:00:16.936Z,99312.03
2022-09-16T23:02:48.912Z,99307.01
2022-09-16T23:05:20.822Z,99311.20
2022-09-16T23:10:53.115Z,99305.33
2022-09-16T23:13:27.111Z,99303.47
2022-09-16T23:16:04.065Z,99299.71
2022-09-16T23:18:37.331Z,99299.14
2022-09-16T23:21:11.358Z,99271.74
2022-09-16T23:23:45.239Z,99292.25
2022-09-16T23:26:19.002Z,99292.27
2022-09-16T23:28:54.073Z,99291.18
2022-09-16T23:31:28.192Z,99289.70
2022-09-16T23:34:00.782Z,99286.52
2022-09-16T23:36:34.793Z,99293.78
2022-09-16T23:39:07.916Z,99286.52
2022-09-16T23:41:41.412Z,99287.08
2022-09-16T23:44:15.764Z,99283.67
2022-09-16T23:46:47.983Z,99284.33
2022-09-16T23:49:20.925Z,99280.63
2022-09-16T23:51:53.012Z,99274.52
2022-09-16T23:54:25.002Z,99272.55
2022-09-16T23:56:57.398Z,99264.92
2022-09-16T23:59:29.341Z,99273.73
